createdAt,value
2019-03-29T00:00:39.214Z,93.33
2019-03-29T00:03:09.202Z,95.80
2019-03-29T00:05:38.861Z,112.50
2019-03-29T00:08:10.553Z,129.10
2019-03-29T00:10:40.097Z,91.87
2019-03-29T00:13:14.348Z,114.60
2019-03-29T00:15:46.419Z,135.50
2019-03-29T00:18:17.373Z,88.60
2019-03-29T00:20:47.219Z,135.30
2019-03-29T00:23:17.464Z,123.57
2019-03-29T00:25:47.048Z,138.57
2019-03-29T00:28:16.282Z,153.10
2019-03-29T00:30:58.319Z,72.87
2019-03-29T00:33:31.116Z,144.77
2019-03-29T00:36:00.235Z,144.53
2019-03-29T00:38:30.096Z,80.90
2019-03-29T00:41:00.226Z,118.23
2019-03-29T00:43:29.470Z,146.37
2019-03-29T00:45:59.007Z,89.67
2019-03-29T00:51:35.796Z,112.70
2019-03-29T00:54:05.864Z,130.30
2019-03-29T00:56:35.429Z,133.40
2019-03-29T00:59:06.134Z,93.23
2019-03-29T01:01:39.922Z,133.40
2019-03-29T01:04:09.590Z,163.77
2019-03-29T01:06:39.254Z,137.97
2019-03-29T01:09:11.375Z,118.07
2019-03-29T01:11:41.475Z,77.37
2019-03-29T01:14:11.901Z,200.03
2019-03-29T01:16:42.924Z,148.07
2019-03-29T01:19:14.558Z,167.17
2019-03-29T01:21:44.187Z,197.07
2019-03-29T01:24:14.191Z,156.17
2019-03-29T01:26:51.380Z,114.47
2019-03-29T01:29:20.719Z,105.33
2019-03-29T01:31:50.140Z,161.60
2019-03-29T01:34:23.461Z,77.40
2019-03-29T01:46:43.021Z,203.87
2019-03-29T01:56:12.542Z,69.20
2019-03-29T01:58:43.007Z,99.17
2019-03-29T02:01:17.087Z,143.10
2019-03-29T02:03:48.168Z,86.37
2019-03-29T02:06:30.270Z,215.73
2019-03-29T02:08:59.610Z,170.90
2019-03-29T02:11:37.759Z,181.50
2019-03-29T02:14:06.924Z,96.60
2019-03-29T02:16:35.962Z,147.97
2019-03-29T02:19:32.202Z,81.37
2019-03-29T02:22:01.844Z,148.50
2019-03-29T02:24:31.626Z,204.40
2019-03-29T02:27:01.724Z,148.40
2019-03-29T02:29:30.813Z,165.27
2019-03-29T02:32:00.132Z,135.63
2019-03-29T02:34:29.199Z,202.57
2019-03-29T02:36:59.210Z,113.03
2019-03-29T02:39:28.796Z,139.07
2019-03-29T02:41:58.620Z,102.03
2019-03-29T02:44:28.155Z,202.37
2019-03-29T02:46:57.375Z,222.73
2019-03-29T02:49:26.528Z,255.23
2019-03-29T02:51:56.196Z,124.53
2019-03-29T02:54:25.360Z,163.23
2019-03-29T02:56:54.858Z,179.13
2019-03-29T02:59:24.351Z,273.77
2019-03-29T03:01:53.861Z,212.70
2019-03-29T03:04:23.139Z,194.47
2019-03-29T03:06:52.952Z,199.10
2019-03-29T03:09:22.175Z,229.17
2019-03-29T03:11:51.878Z,233.47
2019-03-29T03:14:22.996Z,196.83
2019-03-29T03:16:52.285Z,216.83
2019-03-29T03:19:21.455Z,196.13
2019-03-29T03:21:50.715Z,187.50
2019-03-29T03:24:21.651Z,198.97
2019-03-29T03:26:50.789Z,230.37
2019-03-29T03:29:19.980Z,213.43
2019-03-29T03:31:49.149Z,184.30
2019-03-29T03:34:18.421Z,164.30
2019-03-29T03:36:47.468Z,134.83
2019-03-29T03:39:30.593Z,123.30
2019-03-29T03:41:47.539Z,94.90
2019-03-29T03:44:16.601Z,119.10
2019-03-29T03:46:46.312Z,118.77
2019-03-29T03:49:16.551Z,103.57
2019-03-29T03:51:46.792Z,78.93
2019-03-29T03:54:15.901Z,69.50
2019-03-29T03:56:45.586Z,128.07
2019-03-29T03:59:14.808Z,185.63
2019-03-29T04:01:44.266Z,132.17
2019-03-29T04:04:13.487Z,110.87
2019-03-29T04:06:42.773Z,114.47
2019-03-29T04:09:12.635Z,110.17
2019-03-29T04:11:41.691Z,101.93
2019-03-29T04:14:10.781Z,92.17
2019-03-29T04:16:40.028Z,140.53
2019-03-29T04:19:09.476Z,83.00
2019-03-29T04:21:38.704Z,66.17
2019-03-29T04:24:07.832Z,107.03
2019-03-29T04:26:37.368Z,104.43
2019-03-29T04:29:06.698Z,126.80
2019-03-29T04:31:36.619Z,126.67
2019-03-29T04:34:05.984Z,136.33
2019-03-29T04:36:35.663Z,144.27
2019-03-29T04:39:06.238Z,111.47
2019-03-29T04:41:35.459Z,105.80
2019-03-29T04:44:05.011Z,125.67
2019-03-29T04:46:34.299Z,193.27
2019-03-29T04:49:03.476Z,160.17
2019-03-29T04:51:32.577Z,103.63
2019-03-29T04:54:02.209Z,76.17
2019-03-29T04:56:31.369Z,61.47
2019-03-29T04:59:00.456Z,85.93
2019-03-29T05:01:30.369Z,83.07
2019-03-29T05:03:59.822Z,135.80
2019-03-29T05:06:30.872Z,109.13
2019-03-29T05:09:01.135Z,103.07
2019-03-29T05:11:30.271Z,111.43
2019-03-29T05:13:59.613Z,114.17
2019-03-29T05:16:30.165Z,90.30
2019-03-29T05:18:59.199Z,152.63
2019-03-29T05:21:29.372Z,154.03
2019-03-29T05:23:58.471Z,173.57
2019-03-29T05:26:27.591Z,166.03
2019-03-29T05:28:56.812Z,174.80
2019-03-29T05:31:27.000Z,157.30
2019-03-29T05:33:56.907Z,157.93
2019-03-29T05:36:27.277Z,151.90
2019-03-29T05:38:57.051Z,142.70
2019-03-29T05:41:34.402Z,189.20
2019-03-29T05:44:09.511Z,205.60
2019-03-29T05:46:47.967Z,222.30
2019-03-29T05:49:17.980Z,177.53
2019-03-29T05:51:47.131Z,186.73
2019-03-29T05:54:17.958Z,142.03
2019-03-29T05:56:47.376Z,172.83
2019-03-29T05:59:17.699Z,207.87
2019-03-29T06:01:46.754Z,193.30
2019-03-29T06:04:15.961Z,210.77
2019-03-29T06:06:44.997Z,189.03
2019-03-29T06:09:14.904Z,188.33
2019-03-29T06:11:44.066Z,151.30
2019-03-29T06:14:13.205Z,161.27
2019-03-29T06:16:42.227Z,164.23
2019-03-29T06:19:19.679Z,180.13
2019-03-29T06:21:50.294Z,206.17
2019-03-29T06:24:19.353Z,190.77
2019-03-29T06:26:48.896Z,180.40
2019-03-29T06:29:18.030Z,212.57
2019-03-29T06:31:47.411Z,193.27
2019-03-29T06:34:16.959Z,776.00
2019-03-29T06:36:47.192Z,221.83
2019-03-29T06:39:17.244Z,192.80
2019-03-29T06:41:46.320Z,179.90
2019-03-29T06:44:15.811Z,202.83
2019-03-29T06:46:48.304Z,167.23
2019-03-29T06:49:19.218Z,112.00
2019-03-29T06:51:48.571Z,206.60
2019-03-29T06:54:18.795Z,125.30
2019-03-29T06:56:50.166Z,140.83
2019-03-29T06:59:19.247Z,140.40
2019-03-29T07:01:48.475Z,101.23
2019-03-29T07:04:17.740Z,140.13
2019-03-29T07:06:47.181Z,122.33
2019-03-29T07:09:16.407Z,118.33
2019-03-29T07:11:46.480Z,135.67
2019-03-29T07:14:16.636Z,122.23
2019-03-29T07:16:45.984Z,101.47
2019-03-29T07:19:15.203Z,125.73
2019-03-29T07:21:44.334Z,128.57
2019-03-29T07:24:13.457Z,114.70
2019-03-29T07:26:44.503Z,101.23
2019-03-29T07:29:18.898Z,105.80
2019-03-29T07:31:53.157Z,75.77
2019-03-29T07:34:26.498Z,108.80
2019-03-29T07:36:56.062Z,97.43
2019-03-29T07:39:33.943Z,100.33
2019-03-29T07:42:03.477Z,77.77
2019-03-29T07:44:33.533Z,110.93
2019-03-29T07:47:02.700Z,87.47
2019-03-29T07:49:37.950Z,92.20
2019-03-29T07:52:07.665Z,83.10
2019-03-29T07:54:38.631Z,73.37
2019-03-29T07:57:07.851Z,70.23
2019-03-29T07:59:37.404Z,65.13
2019-03-29T08:02:06.797Z,55.03
2019-03-29T08:04:37.152Z,58.50
2019-03-29T08:07:07.548Z,59.00
2019-03-29T08:09:37.105Z,49.20
2019-03-29T08:12:06.666Z,44.80
2019-03-29T08:14:38.428Z,42.77
2019-03-29T08:17:09.442Z,41.90
2019-03-29T08:19:41.799Z,35.93
2019-03-29T08:22:12.724Z,36.90
2019-03-29T08:24:42.627Z,38.73
2019-03-29T08:27:12.867Z,38.37
2019-03-29T08:29:43.547Z,33.80
2019-03-29T08:32:12.718Z,36.87
2019-03-29T08:34:42.180Z,35.20
2019-03-29T08:37:12.378Z,33.60
2019-03-29T08:39:42.168Z,28.13
2019-03-29T08:42:11.876Z,30.90
2019-03-29T08:44:41.077Z,34.00
2019-03-29T08:47:10.856Z,28.13
2019-03-29T08:49:40.085Z,28.07
2019-03-29T08:52:09.540Z,26.80
2019-03-29T08:54:39.640Z,24.30
2019-03-29T08:57:10.551Z,23.27
2019-03-29T08:59:39.908Z,21.77
2019-03-29T09:02:09.593Z,21.50
2019-03-29T09:04:42.843Z,27.93
2019-03-29T09:07:16.582Z,29.43
2019-03-29T09:09:46.583Z,28.10
2019-03-29T09:12:15.987Z,26.93
2019-03-29T09:14:45.089Z,25.20
2019-03-29T09:17:14.176Z,24.40
2019-03-29T09:19:43.438Z,23.07
2019-03-29T09:22:12.647Z,20.70
2019-03-29T09:24:41.746Z,19.13
2019-03-29T09:27:10.821Z,15.13
2019-03-29T09:29:40.301Z,15.97
2019-03-29T09:32:10.009Z,12.73
2019-03-29T09:34:39.213Z,11.90
2019-03-29T09:37:08.300Z,11.20
2019-03-29T09:39:38.137Z,12.73
2019-03-29T09:42:27.538Z,13.37
2019-03-29T09:44:44.046Z,16.87
2019-03-29T09:47:15.827Z,15.13
2019-03-29T09:49:47.522Z,14.20
2019-03-29T09:52:16.747Z,12.17
2019-03-29T09:54:53.905Z,14.83
2019-03-29T09:57:36.855Z,13.37
2019-03-29T09:59:59.837Z,9.27
2019-03-29T10:02:34.861Z,9.07
2019-03-29T10:05:06.295Z,10.57
2019-03-29T10:07:37.423Z,11.37
2019-03-29T10:10:06.925Z,9.30
2019-03-29T10:12:43.760Z,7.87
2019-03-29T10:15:16.916Z,8.43
2019-03-29T10:17:47.536Z,8.13
2019-03-29T10:20:17.366Z,4.83
2019-03-29T10:22:50.051Z,6.93
2019-03-29T10:25:20.348Z,4.13
2019-03-29T10:27:52.647Z,2.60
2019-03-29T10:30:38.321Z,3.63
2019-03-29T10:33:09.984Z,6.70
2019-03-29T10:35:51.379Z,6.23
2019-03-29T10:38:18.764Z,8.77
2019-03-29T10:40:48.144Z,6.70
2019-03-29T10:43:25.055Z,6.47
2019-03-29T10:45:55.072Z,6.40
2019-03-29T10:48:24.457Z,6.57
2019-03-29T10:50:58.561Z,6.10
2019-03-29T10:53:28.981Z,5.83
2019-03-29T10:55:58.450Z,6.33
2019-03-29T10:58:29.331Z,5.73
2019-03-29T11:01:02.410Z,6.27
2019-03-29T11:03:35.018Z,6.47
2019-03-29T11:06:04.255Z,6.47
2019-03-29T11:08:36.124Z,6.00
2019-03-29T11:11:07.561Z,7.00
2019-03-29T11:13:40.759Z,7.27
2019-03-29T11:16:10.264Z,7.37
2019-03-29T11:18:45.899Z,6.93
2019-03-29T11:21:18.206Z,7.80
2019-03-29T11:23:48.560Z,6.83
2019-03-29T11:26:18.741Z,7.13
2019-03-29T11:28:48.067Z,8.20
2019-03-29T11:31:19.579Z,7.30
2019-03-29T11:33:49.999Z,8.47
2019-03-29T11:36:21.863Z,7.10
2019-03-29T11:38:50.725Z,6.67
2019-03-29T11:41:19.773Z,8.20
2019-03-29T11:43:48.816Z,8.37
2019-03-29T11:46:18.102Z,8.03
2019-03-29T11:48:47.990Z,9.23
2019-03-29T11:51:19.797Z,9.23
2019-03-29T11:53:51.207Z,9.30
2019-03-29T11:56:20.717Z,9.63
2019-03-29T11:58:50.254Z,8.37
2019-03-29T12:01:19.553Z,10.83
2019-03-29T12:03:49.087Z,11.37
2019-03-29T12:06:18.867Z,11.80
2019-03-29T12:08:48.393Z,13.17
2019-03-29T12:11:18.278Z,12.87
2019-03-29T12:13:47.650Z,12.03
2019-03-29T12:16:17.604Z,12.50
2019-03-29T12:18:47.541Z,11.07
2019-03-29T12:21:16.820Z,10.00
2019-03-29T12:23:46.342Z,8.87
2019-03-29T12:26:16.253Z,10.10
2019-03-29T12:28:45.830Z,10.07
2019-03-29T12:31:15.661Z,10.93
2019-03-29T12:33:45.514Z,11.20
2019-03-29T12:36:14.990Z,10.73
2019-03-29T12:38:44.568Z,10.50
2019-03-29T12:41:16.898Z,10.20
2019-03-29T12:43:55.320Z,8.63
2019-03-29T12:46:18.405Z,9.97
2019-03-29T12:48:50.319Z,8.00
2019-03-29T12:51:21.970Z,8.17
2019-03-29T12:53:53.704Z,8.53
2019-03-29T12:56:24.228Z,9.00
2019-03-29T12:58:54.201Z,7.87
2019-03-29T13:01:23.688Z,8.30
2019-03-29T13:03:53.436Z,7.87
2019-03-29T13:06:31.317Z,7.67
2019-03-29T13:09:11.055Z,6.83
2019-03-29T13:11:40.457Z,7.97
2019-03-29T13:14:10.886Z,8.10
2019-03-29T13:16:40.172Z,7.10
2019-03-29T13:19:09.772Z,6.40
2019-03-29T13:21:40.561Z,5.00
2019-03-29T13:24:10.407Z,5.47
2019-03-29T13:26:40.391Z,5.37
2019-03-29T13:29:10.496Z,5.10
2019-03-29T13:31:39.807Z,5.63
2019-03-29T13:34:09.611Z,5.27
2019-03-29T13:36:38.935Z,4.93
2019-03-29T13:39:08.518Z,4.53
2019-03-29T13:41:39.680Z,4.33
2019-03-29T13:44:22.956Z,4.23
2019-03-29T13:46:40.475Z,4.40
2019-03-29T13:49:11.942Z,4.57
2019-03-29T13:51:42.172Z,5.70
2019-03-29T13:54:14.555Z,7.93
2019-03-29T13:56:45.123Z,5.07
2019-03-29T13:59:16.498Z,4.77
2019-03-29T14:01:46.261Z,4.53
2019-03-29T14:04:19.457Z,4.83
2019-03-29T14:06:48.687Z,4.70
2019-03-29T14:09:18.631Z,4.77
2019-03-29T14:11:50.406Z,4.27
2019-03-29T14:14:32.420Z,4.53
2019-03-29T14:16:52.708Z,4.00
2019-03-29T14:19:22.282Z,4.00
2019-03-29T14:21:51.885Z,3.53
2019-03-29T14:24:22.765Z,3.70
2019-03-29T14:26:53.317Z,3.87
2019-03-29T14:29:23.562Z,5.40
2019-03-29T14:31:55.692Z,3.83
2019-03-29T14:34:28.696Z,3.33
2019-03-29T14:36:59.918Z,3.73
2019-03-29T14:39:29.109Z,3.63
2019-03-29T14:42:01.810Z,2.80
2019-03-29T14:44:31.867Z,3.27
2019-03-29T14:47:05.636Z,4.23
2019-03-29T14:49:39.729Z,3.57
2019-03-29T14:52:15.328Z,3.30
2019-03-29T14:54:46.084Z,3.20
2019-03-29T14:57:17.011Z,3.47
2019-03-29T14:59:47.327Z,3.80
2019-03-29T15:02:17.697Z,3.47
2019-03-29T15:04:47.344Z,3.60
2019-03-29T15:07:17.353Z,4.20
2019-03-29T15:09:47.008Z,4.40
2019-03-29T15:12:16.817Z,4.20
2019-03-29T15:14:46.170Z,4.30
2019-03-29T15:17:16.841Z,3.93
2019-03-29T15:19:47.240Z,4.63
2019-03-29T15:22:16.744Z,3.97
2019-03-29T15:24:46.073Z,4.10
2019-03-29T15:27:17.623Z,5.10
2019-03-29T15:29:47.846Z,4.10
2019-03-29T15:32:17.084Z,3.90
2019-03-29T15:34:46.297Z,4.60
2019-03-29T15:37:17.936Z,3.70
2019-03-29T15:39:53.997Z,4.03
2019-03-29T15:42:23.436Z,3.53
2019-03-29T15:44:52.781Z,4.57
2019-03-29T15:47:23.311Z,4.27
2019-03-29T15:49:56.203Z,4.07
2019-03-29T15:52:24.100Z,4.20
2019-03-29T15:54:53.801Z,4.00
2019-03-29T15:57:23.348Z,4.80
2019-03-29T15:59:52.769Z,4.73
2019-03-29T16:02:23.748Z,6.33
2019-03-29T16:04:54.391Z,5.27
2019-03-29T16:07:24.170Z,5.90
2019-03-29T16:09:53.934Z,5.27
2019-03-29T16:12:25.209Z,6.57
2019-03-29T16:14:55.414Z,5.47
2019-03-29T16:17:26.012Z,5.50
2019-03-29T16:19:56.957Z,5.33
2019-03-29T16:22:26.734Z,5.87
2019-03-29T16:24:56.687Z,5.13
2019-03-29T16:27:26.271Z,5.73
2019-03-29T16:29:56.300Z,6.67
2019-03-29T16:32:27.444Z,5.90
2019-03-29T16:34:56.717Z,4.97
2019-03-29T16:37:27.423Z,4.80
2019-03-29T16:39:58.143Z,5.63
2019-03-29T16:42:29.053Z,6.33
2019-03-29T16:45:02.462Z,5.57
2019-03-29T16:47:32.691Z,5.57
2019-03-29T16:50:05.854Z,6.63
2019-03-29T16:52:36.596Z,5.87
2019-03-29T16:55:13.219Z,5.30
2019-03-29T16:57:38.099Z,5.83
2019-03-29T17:00:12.344Z,5.60
2019-03-29T17:02:43.660Z,6.40
2019-03-29T17:05:12.977Z,6.07
2019-03-29T17:07:42.675Z,7.87
2019-03-29T17:10:13.401Z,6.73
2019-03-29T17:12:46.518Z,5.73
2019-03-29T17:15:19.627Z,6.17
2019-03-29T17:17:49.304Z,6.13
2019-03-29T17:20:19.873Z,6.33
2019-03-29T17:22:51.234Z,5.70
2019-03-29T17:25:22.678Z,5.97
2019-03-29T17:27:53.213Z,6.93
2019-03-29T17:30:35.514Z,6.30
2019-03-29T17:33:05.601Z,6.00
2019-03-29T17:35:36.874Z,7.77
2019-03-29T17:38:06.246Z,7.67
2019-03-29T17:40:37.352Z,6.63
2019-03-29T17:43:06.829Z,6.70
2019-03-29T17:45:37.295Z,6.37
2019-03-29T17:48:08.083Z,11.53
2019-03-29T17:50:37.559Z,6.93
2019-03-29T17:53:08.102Z,8.60
2019-03-29T17:55:38.173Z,6.23
2019-03-29T17:58:07.589Z,6.83
2019-03-29T18:00:37.893Z,13.57
2019-03-29T18:03:07.292Z,6.93
2019-03-29T18:05:36.891Z,8.60
2019-03-29T18:08:06.231Z,7.87
2019-03-29T18:10:37.104Z,8.00
2019-03-29T18:13:06.554Z,7.50
2019-03-29T18:15:36.776Z,8.93
2019-03-29T18:18:06.049Z,8.00
2019-03-29T18:20:35.910Z,9.13
2019-03-29T18:23:05.868Z,8.27
2019-03-29T18:25:35.545Z,9.80
2019-03-29T18:28:04.990Z,9.80
2019-03-29T18:30:38.937Z,10.10
2019-03-29T18:33:08.061Z,11.03
2019-03-29T18:35:37.534Z,18.70
2019-03-29T18:38:08.803Z,27.70
2019-03-29T18:40:38.759Z,24.80
2019-03-29T18:43:08.300Z,24.90
2019-03-29T18:45:37.502Z,26.97
2019-03-29T18:48:07.431Z,20.23
2019-03-29T18:50:36.976Z,38.60
2019-03-29T18:53:07.146Z,24.03
2019-03-29T18:55:37.654Z,28.43
2019-03-29T18:58:08.020Z,25.57
2019-03-29T19:00:38.866Z,28.93
2019-03-29T19:03:12.601Z,21.43
2019-03-29T19:05:44.230Z,25.23
2019-03-29T19:08:16.127Z,25.70
2019-03-29T19:10:49.827Z,27.00
2019-03-29T19:13:22.299Z,27.23
2019-03-29T19:15:52.075Z,28.30
2019-03-29T19:18:22.009Z,27.97
2019-03-29T19:20:52.815Z,24.93
2019-03-29T19:23:22.670Z,22.73
2019-03-29T19:25:52.240Z,25.20
2019-03-29T19:28:23.129Z,21.90
2019-03-29T19:31:16.631Z,22.13
2019-03-29T19:33:49.160Z,24.23
2019-03-29T19:36:18.864Z,26.90
2019-03-29T19:38:48.539Z,21.53
2019-03-29T19:41:18.468Z,22.10
2019-03-29T19:43:49.078Z,24.83
2019-03-29T19:46:19.597Z,28.53
2019-03-29T19:48:50.611Z,26.50
2019-03-29T19:51:20.209Z,23.83
2019-03-29T19:53:49.700Z,20.33
2019-03-29T19:56:19.531Z,24.17
2019-03-29T19:58:50.020Z,22.23
2019-03-29T20:01:20.375Z,24.30
2019-03-29T20:03:50.009Z,22.67
2019-03-29T20:06:19.649Z,24.03
2019-03-29T20:08:50.096Z,21.97
2019-03-29T20:11:22.346Z,54.93
2019-03-29T20:13:52.223Z,84.40
2019-03-29T20:16:21.690Z,42.50
2019-03-29T20:18:54.442Z,50.80
2019-03-29T20:21:26.513Z,44.13
2019-03-29T20:23:56.019Z,42.77
2019-03-29T20:26:25.529Z,50.37
2019-03-29T20:28:55.448Z,32.33
2019-03-29T20:31:29.097Z,31.07
2019-03-29T20:33:59.327Z,32.93
2019-03-29T20:36:28.754Z,32.63
2019-03-29T20:38:58.236Z,30.93
2019-03-29T20:41:35.257Z,38.23
2019-03-29T20:44:08.595Z,37.73
2019-03-29T20:46:38.528Z,44.87
2019-03-29T20:49:08.711Z,36.50
2019-03-29T20:51:38.206Z,40.50
2019-03-29T20:54:11.403Z,47.03
2019-03-29T20:56:42.010Z,41.77
2019-03-29T20:59:11.730Z,38.13
2019-03-29T21:01:41.094Z,32.93
2019-03-29T21:04:10.614Z,29.40
2019-03-29T21:06:40.855Z,34.13
2019-03-29T21:09:12.167Z,36.90
2019-03-29T21:11:41.393Z,35.33
2019-03-29T21:14:15.995Z,34.73
2019-03-29T21:16:48.065Z,32.27
2019-03-29T21:19:18.601Z,35.27
2019-03-29T21:21:48.605Z,32.50
2019-03-29T21:24:19.391Z,31.33
2019-03-29T21:33:09.550Z,32.93
2019-03-29T21:35:40.116Z,36.50
2019-03-29T21:38:13.530Z,30.60
2019-03-29T21:40:42.932Z,35.03
2019-03-29T21:43:12.395Z,32.20
2019-03-29T21:45:42.743Z,45.77
2019-03-29T21:48:28.260Z,33.73
2019-03-29T21:50:49.194Z,38.20
2019-03-29T21:53:22.161Z,33.57
2019-03-29T21:55:53.974Z,38.50
2019-03-29T21:58:28.649Z,36.90
2019-03-29T22:01:00.758Z,37.20
2019-03-29T22:03:36.822Z,41.37
2019-03-29T22:06:11.535Z,44.47
2019-03-29T22:08:42.409Z,44.97
2019-03-29T22:11:31.311Z,47.40
2019-03-29T22:17:12.612Z,53.63
2019-03-29T22:19:44.291Z,49.40
2019-03-29T22:22:14.400Z,51.70
2019-03-29T22:27:26.188Z,51.90
2019-03-29T22:29:56.435Z,51.63
2019-03-29T22:32:27.692Z,51.23
2019-03-29T22:34:57.310Z,54.57
2019-03-29T22:37:28.931Z,56.20
2019-03-29T22:40:00.366Z,50.10
2019-03-29T22:42:29.861Z,51.53
2019-03-29T22:44:59.091Z,55.70
2019-03-29T22:47:29.911Z,55.70
2019-03-29T22:49:59.568Z,60.43
2019-03-29T22:52:29.306Z,55.10
2019-03-29T22:54:58.745Z,49.60
2019-03-29T22:57:29.179Z,54.43
2019-03-29T23:00:01.103Z,45.23
2019-03-29T23:02:33.272Z,53.43
2019-03-29T23:05:02.710Z,50.20
2019-03-29T23:07:32.453Z,46.23
2019-03-29T23:10:04.354Z,49.13
2019-03-29T23:12:34.398Z,55.90
2019-03-29T23:15:04.412Z,53.97
2019-03-29T23:17:36.128Z,53.60
2019-03-29T23:20:08.579Z,53.57
2019-03-29T23:22:37.934Z,53.40
2019-03-29T23:25:07.843Z,50.57
2019-03-29T23:27:39.642Z,51.37
2019-03-29T23:30:10.506Z,55.37
2019-03-29T23:32:39.691Z,52.87
2019-03-29T23:35:21.405Z,62.43
2019-03-29T23:38:00.415Z,53.57
2019-03-29T23:40:44.239Z,58.67
2019-03-29T23:43:14.666Z,55.70
2019-03-29T23:46:03.562Z,53.57
2019-03-29T23:48:42.560Z,57.43
2019-03-29T23:51:14.094Z,55.10
2019-03-29T23:53:44.136Z,53.70
2019-03-29T23:56:13.649Z,50.07
2019-03-29T23:58:42.809Z,55.53
